sensor_id;sensor_type;location;lat;lon;timestamp;P1;durP1;ratioP1;P2;durP2;ratioP2
25153;SDS011;47555;51.038;6.280;2023-04-24T00:01:49;4.38;;;2.45;;
25153;SDS011;47555;51.038;6.280;2023-04-24T00:04:15;2.63;;;2.10;;
25153;SDS011;47555;51.038;6.280;2023-04-24T00:06:42;3.17;;;2.20;;
25153;SDS011;47555;51.038;6.280;2023-04-24T00:09:08;2.88;;;2.38;;
25153;SDS011;47555;51.038;6.280;2023-04-24T00:11:35;3.67;;;2.20;;
25153;SDS011;47555;51.038;6.280;2023-04-24T00:14:01;2.40;;;2.10;;
25153;SDS011;47555;51.038;6.280;2023-04-24T00:16:27;3.22;;;2.47;;
25153;SDS011;47555;51.038;6.280;2023-04-24T00:18:53;4.70;;;2.50;;
25153;SDS011;47555;51.038;6.280;2023-04-24T00:21:18;7.63;;;2.50;;
25153;SDS011;47555;51.038;6.280;2023-04-24T00:23:44;4.10;;;2.90;;
25153;SDS011;47555;51.038;6.280;2023-04-24T00:26:10;4.88;;;2.78;;
25153;SDS011;47555;51.038;6.280;2023-04-24T00:28:35;4.03;;;2.55;;
25153;SDS011;47555;51.038;6.280;2023-04-24T00:31:01;4.85;;;2.95;;
25153;SDS011;47555;51.038;6.280;2023-04-24T00:33:26;4.53;;;2.88;;
25153;SDS011;47555;51.038;6.280;2023-04-24T00:35:52;3.83;;;2.53;;
25153;SDS011;47555;51.038;6.280;2023-04-24T00:38:18;6.85;;;3.28;;
25153;SDS011;47555;51.038;6.280;2023-04-24T00:40:46;6.20;;;3.50;;
25153;SDS011;47555;51.038;6.280;2023-04-24T00:43:12;6.47;;;3.70;;
25153;SDS011;47555;51.038;6.280;2023-04-24T00:45:38;6.72;;;3.78;;
25153;SDS011;47555;51.038;6.280;2023-04-24T00:48:03;7.03;;;3.80;;
25153;SDS011;47555;51.038;6.280;2023-04-24T00:50:29;6.78;;;3.95;;
25153;SDS011;47555;51.038;6.280;2023-04-24T00:52:55;6.65;;;4.25;;
25153;SDS011;47555;51.038;6.280;2023-04-24T00:55:21;7.95;;;4.72;;
25153;SDS011;47555;51.038;6.280;2023-04-24T00:57:46;9.15;;;4.82;;
25153;SDS011;47555;51.038;6.280;2023-04-24T01:00:13;7.00;;;4.70;;
25153;SDS011;47555;51.038;6.280;2023-04-24T01:02:40;8.35;;;4.85;;
25153;SDS011;47555;51.038;6.280;2023-04-24T01:05:10;9.20;;;6.03;;
25153;SDS011;47555;51.038;6.280;2023-04-24T01:07:40;9.77;;;5.32;;
25153;SDS011;47555;51.038;6.280;2023-04-24T01:10:09;7.60;;;5.68;;
25153;SDS011;47555;51.038;6.280;2023-04-24T01:12:35;10.57;;;6.20;;
25153;SDS011;47555;51.038;6.280;2023-04-24T01:15:01;11.77;;;6.25;;
25153;SDS011;47555;51.038;6.280;2023-04-24T01:17:28;10.80;;;5.97;;
25153;SDS011;47555;51.038;6.280;2023-04-24T01:19:54;10.07;;;6.32;;
25153;SDS011;47555;51.038;6.280;2023-04-24T01:22:21;13.40;;;6.85;;
25153;SDS011;47555;51.038;6.280;2023-04-24T01:24:47;10.45;;;6.20;;
25153;SDS011;47555;51.038;6.280;2023-04-24T01:27:13;12.43;;;6.43;;
25153;SDS011;47555;51.038;6.280;2023-04-24T01:29:39;10.85;;;6.65;;
25153;SDS011;47555;51.038;6.280;2023-04-24T01:32:05;13.15;;;7.32;;
25153;SDS011;47555;51.038;6.280;2023-04-24T01:34:31;10.82;;;6.57;;
25153;SDS011;47555;51.038;6.280;2023-04-24T01:36:57;14.25;;;7.13;;
25153;SDS011;47555;51.038;6.280;2023-04-24T01:39:23;15.18;;;7.93;;
25153;SDS011;47555;51.038;6.280;2023-04-24T01:41:50;16.95;;;8.02;;
25153;SDS011;47555;51.038;6.280;2023-04-24T01:44:17;14.70;;;8.07;;
25153;SDS011;47555;51.038;6.280;2023-04-24T01:46:43;15.00;;;7.65;;
25153;SDS011;47555;51.038;6.280;2023-04-24T01:49:08;18.30;;;8.43;;
25153;SDS011;47555;51.038;6.280;2023-04-24T01:51:34;15.35;;;8.13;;
25153;SDS011;47555;51.038;6.280;2023-04-24T01:53:59;14.57;;;7.88;;
25153;SDS011;47555;51.038;6.280;2023-04-24T01:56:25;12.98;;;7.85;;
25153;SDS011;47555;51.038;6.280;2023-04-24T01:58:53;14.38;;;8.15;;
25153;SDS011;47555;51.038;6.280;2023-04-24T02:01:20;15.68;;;8.25;;
25153;SDS011;47555;51.038;6.280;2023-04-24T02:03:46;17.35;;;8.95;;
25153;SDS011;47555;51.038;6.280;2023-04-24T02:06:11;13.68;;;7.95;;
25153;SDS011;47555;51.038;6.280;2023-04-24T02:08:37;13.85;;;8.73;;
25153;SDS011;47555;51.038;6.280;2023-04-24T02:11:02;16.08;;;8.15;;
25153;SDS011;47555;51.038;6.280;2023-04-24T02:13:28;13.75;;;8.15;;
25153;SDS011;47555;51.038;6.280;2023-04-24T02:15:54;16.77;;;8.07;;
25153;SDS011;47555;51.038;6.280;2023-04-24T02:18:19;16.30;;;8.45;;
25153;SDS011;47555;51.038;6.280;2023-04-24T02:20:45;18.20;;;8.48;;
25153;SDS011;47555;51.038;6.280;2023-04-24T02:23:11;13.70;;;8.25;;
25153;SDS011;47555;51.038;6.280;2023-04-24T02:25:38;20.95;;;8.32;;
25153;SDS011;47555;51.038;6.280;2023-04-24T02:28:03;12.10;;;7.50;;
25153;SDS011;47555;51.038;6.280;2023-04-24T02:30:29;15.43;;;8.68;;
25153;SDS011;47555;51.038;6.280;2023-04-24T02:32:55;16.08;;;7.78;;
25153;SDS011;47555;51.038;6.280;2023-04-24T02:35:21;13.30;;;7.30;;
25153;SDS011;47555;51.038;6.280;2023-04-24T02:37:46;13.85;;;7.15;;
25153;SDS011;47555;51.038;6.280;2023-04-24T02:40:12;13.60;;;7.65;;
25153;SDS011;47555;51.038;6.280;2023-04-24T02:42:37;15.77;;;8.43;;
25153;SDS011;47555;51.038;6.280;2023-04-24T02:45:03;12.10;;;7.80;;
25153;SDS011;47555;51.038;6.280;2023-04-24T02:47:30;13.48;;;8.80;;
25153;SDS011;47555;51.038;6.280;2023-04-24T02:49:55;13.35;;;7.35;;
25153;SDS011;47555;51.038;6.280;2023-04-24T02:52:21;14.07;;;7.47;;
25153;SDS011;47555;51.038;6.280;2023-04-24T02:54:46;12.10;;;7.53;;
25153;SDS011;47555;51.038;6.280;2023-04-24T02:57:12;15.95;;;7.93;;
25153;SDS011;47555;51.038;6.280;2023-04-24T02:59:37;18.15;;;9.00;;
25153;SDS011;47555;51.038;6.280;2023-04-24T03:02:03;10.80;;;7.38;;
25153;SDS011;47555;51.038;6.280;2023-04-24T03:04:28;11.65;;;7.90;;
25153;SDS011;47555;51.038;6.280;2023-04-24T03:06:54;13.65;;;7.95;;
25153;SDS011;47555;51.038;6.280;2023-04-24T03:09:20;13.95;;;8.35;;
25153;SDS011;47555;51.038;6.280;2023-04-24T03:11:46;13.43;;;7.68;;
25153;SDS011;47555;51.038;6.280;2023-04-24T03:14:12;14.88;;;8.90;;
25153;SDS011;47555;51.038;6.280;2023-04-24T03:16:37;16.20;;;8.88;;
25153;SDS011;47555;51.038;6.280;2023-04-24T03:19:03;15.10;;;8.70;;
25153;SDS011;47555;51.038;6.280;2023-04-24T03:21:28;14.10;;;8.25;;
25153;SDS011;47555;51.038;6.280;2023-04-24T03:23:54;13.60;;;7.72;;
25153;SDS011;47555;51.038;6.280;2023-04-24T03:26:20;16.38;;;9.10;;
25153;SDS011;47555;51.038;6.280;2023-04-24T03:28:45;16.38;;;8.63;;
25153;SDS011;47555;51.038;6.280;2023-04-24T03:31:11;12.90;;;7.50;;
25153;SDS011;47555;51.038;6.280;2023-04-24T03:33:36;17.40;;;9.25;;
25153;SDS011;47555;51.038;6.280;2023-04-24T03:36:02;13.80;;;8.23;;
25153;SDS011;47555;51.038;6.280;2023-04-24T03:38:28;15.35;;;8.65;;
25153;SDS011;47555;51.038;6.280;2023-04-24T03:40:53;14.45;;;8.27;;
25153;SDS011;47555;51.038;6.280;2023-04-24T03:43:19;16.40;;;8.98;;
25153;SDS011;47555;51.038;6.280;2023-04-24T03:45:44;16.20;;;8.25;;
25153;SDS011;47555;51.038;6.280;2023-04-24T03:48:10;11.85;;;7.85;;
25153;SDS011;47555;51.038;6.280;2023-04-24T03:50:35;11.55;;;7.82;;
25153;SDS011;47555;51.038;6.280;2023-04-24T03:53:01;14.73;;;8.00;;
25153;SDS011;47555;51.038;6.280;2023-04-24T03:55:26;11.02;;;6.78;;
25153;SDS011;47555;51.038;6.280;2023-04-24T03:57:52;13.43;;;8.00;;
25153;SDS011;47555;51.038;6.280;2023-04-24T04:00:17;11.00;;;7.05;;
25153;SDS011;47555;51.038;6.280;2023-04-24T04:02:43;13.57;;;7.97;;
25153;SDS011;47555;51.038;6.280;2023-04-24T04:05:09;11.95;;;7.05;;
25153;SDS011;47555;51.038;6.280;2023-04-24T04:07:34;13.77;;;7.00;;
25153;SDS011;47555;51.038;6.280;2023-04-24T04:10:00;13.10;;;7.47;;
25153;SDS011;47555;51.038;6.280;2023-04-24T04:12:25;10.45;;;6.85;;
25153;SDS011;47555;51.038;6.280;2023-04-24T04:14:51;13.93;;;6.65;;
25153;SDS011;47555;51.038;6.280;2023-04-24T04:17:16;12.75;;;6.63;;
25153;SDS011;47555;51.038;6.280;2023-04-24T04:19:42;12.30;;;6.45;;
25153;SDS011;47555;51.038;6.280;2023-04-24T04:22:08;11.35;;;7.05;;
25153;SDS011;47555;51.038;6.280;2023-04-24T04:24:34;12.85;;;7.70;;
25153;SDS011;47555;51.038;6.280;2023-04-24T04:27:03;11.60;;;7.43;;
25153;SDS011;47555;51.038;6.280;2023-04-24T04:29:29;10.48;;;7.05;;
25153;SDS011;47555;51.038;6.280;2023-04-24T04:31:56;12.07;;;7.28;;
25153;SDS011;47555;51.038;6.280;2023-04-24T04:34:22;11.80;;;6.93;;
25153;SDS011;47555;51.038;6.280;2023-04-24T04:36:48;14.25;;;6.97;;
25153;SDS011;47555;51.038;6.280;2023-04-24T04:39:13;10.57;;;6.50;;
25153;SDS011;47555;51.038;6.280;2023-04-24T04:41:40;10.50;;;6.38;;
25153;SDS011;47555;51.038;6.280;2023-04-24T04:44:06;13.25;;;6.72;;
25153;SDS011;47555;51.038;6.280;2023-04-24T04:46:33;12.65;;;7.00;;
25153;SDS011;47555;51.038;6.280;2023-04-24T04:48:59;10.65;;;7.07;;
25153;SDS011;47555;51.038;6.280;2023-04-24T04:51:26;10.32;;;6.95;;
25153;SDS011;47555;51.038;6.280;2023-04-24T04:53:52;12.20;;;6.68;;
25153;SDS011;47555;51.038;6.280;2023-04-24T04:56:17;12.20;;;6.75;;
25153;SDS011;47555;51.038;6.280;2023-04-24T04:58:43;10.02;;;6.32;;
25153;SDS011;47555;51.038;6.280;2023-04-24T05:01:08;10.05;;;6.65;;
25153;SDS011;47555;51.038;6.280;2023-04-24T05:03:34;11.82;;;6.65;;
25153;SDS011;47555;51.038;6.280;2023-04-24T05:06:00;14.57;;;6.72;;
25153;SDS011;47555;51.038;6.280;2023-04-24T05:08:27;10.75;;;6.97;;
25153;SDS011;47555;51.038;6.280;2023-04-24T05:10:52;11.13;;;5.53;;
25153;SDS011;47555;51.038;6.280;2023-04-24T05:13:18;8.63;;;6.22;;
25153;SDS011;47555;51.038;6.280;2023-04-24T05:15:44;10.70;;;5.90;;
25153;SDS011;47555;51.038;6.280;2023-04-24T05:18:10;9.80;;;6.05;;
25153;SDS011;47555;51.038;6.280;2023-04-24T05:20:35;11.68;;;5.38;;
25153;SDS011;47555;51.038;6.280;2023-04-24T05:23:01;9.63;;;5.50;;
25153;SDS011;47555;51.038;6.280;2023-04-24T05:25:26;9.10;;;5.43;;
25153;SDS011;47555;51.038;6.280;2023-04-24T05:27:52;9.85;;;5.38;;
25153;SDS011;47555;51.038;6.280;2023-04-24T05:30:18;11.95;;;5.95;;
25153;SDS011;47555;51.038;6.280;2023-04-24T05:32:44;11.55;;;5.00;;
25153;SDS011;47555;51.038;6.280;2023-04-24T05:35:10;8.27;;;5.82;;
25153;SDS011;47555;51.038;6.280;2023-04-24T05:37:36;7.72;;;4.70;;
25153;SDS011;47555;51.038;6.280;2023-04-24T05:40:02;8.63;;;4.38;;
25153;SDS011;47555;51.038;6.280;2023-04-24T05:42:29;8.85;;;5.25;;
25153;SDS011;47555;51.038;6.280;2023-04-24T05:44:55;9.80;;;5.53;;
25153;SDS011;47555;51.038;6.280;2023-04-24T05:47:21;10.30;;;6.00;;
25153;SDS011;47555;51.038;6.280;2023-04-24T05:49:49;10.65;;;5.47;;
25153;SDS011;47555;51.038;6.280;2023-04-24T05:52:14;10.18;;;5.88;;
25153;SDS011;47555;51.038;6.280;2023-04-24T05:54:40;10.15;;;6.28;;
25153;SDS011;47555;51.038;6.280;2023-04-24T05:57:05;8.70;;;5.25;;
25153;SDS011;47555;51.038;6.280;2023-04-24T05:59:36;10.05;;;6.13;;
25153;SDS011;47555;51.038;6.280;2023-04-24T06:02:03;12.52;;;5.97;;
25153;SDS011;47555;51.038;6.280;2023-04-24T06:04:29;10.43;;;6.47;;
25153;SDS011;47555;51.038;6.280;2023-04-24T06:06:54;8.65;;;5.07;;
25153;SDS011;47555;51.038;6.280;2023-04-24T06:09:23;8.35;;;4.93;;
25153;SDS011;47555;51.038;6.280;2023-04-24T06:11:50;11.70;;;6.03;;
25153;SDS011;47555;51.038;6.280;2023-04-24T06:14:17;8.35;;;5.25;;
25153;SDS011;47555;51.038;6.280;2023-04-24T06:16:43;10.40;;;5.30;;
25153;SDS011;47555;51.038;6.280;2023-04-24T06:19:09;7.55;;;4.65;;
25153;SDS011;47555;51.038;6.280;2023-04-24T06:21:35;10.60;;;5.25;;
25153;SDS011;47555;51.038;6.280;2023-04-24T06:24:00;8.45;;;4.50;;
25153;SDS011;47555;51.038;6.280;2023-04-24T06:26:26;8.85;;;4.53;;
25153;SDS011;47555;51.038;6.280;2023-04-24T06:28:52;8.43;;;4.65;;
25153;SDS011;47555;51.038;6.280;2023-04-24T06:31:21;7.60;;;4.78;;
25153;SDS011;47555;51.038;6.280;2023-04-24T06:33:47;8.02;;;4.10;;
25153;SDS011;47555;51.038;6.280;2023-04-24T06:36:13;6.35;;;3.47;;
25153;SDS011;47555;51.038;6.280;2023-04-24T06:38:39;6.25;;;3.65;;
25153;SDS011;47555;51.038;6.280;2023-04-24T06:41:05;6.10;;;3.30;;
25153;SDS011;47555;51.038;6.280;2023-04-24T06:43:31;4.63;;;2.80;;
25153;SDS011;47555;51.038;6.280;2023-04-24T06:45:57;4.78;;;2.58;;
25153;SDS011;47555;51.038;6.280;2023-04-24T06:48:23;3.33;;;2.65;;
25153;SDS011;47555;51.038;6.280;2023-04-24T06:57:18;5.03;;;2.70;;
25153;SDS011;47555;51.038;6.280;2023-04-24T07:06:16;4.93;;;3.35;;
25153;SDS011;47555;51.038;6.280;2023-04-24T07:08:43;5.40;;;3.03;;
25153;SDS011;47555;51.038;6.280;2023-04-24T07:11:09;6.38;;;3.47;;
25153;SDS011;47555;51.038;6.280;2023-04-24T07:13:34;5.20;;;3.47;;
25153;SDS011;47555;51.038;6.280;2023-04-24T07:16:00;5.60;;;3.58;;
25153;SDS011;47555;51.038;6.280;2023-04-24T07:18:26;5.03;;;2.72;;
25153;SDS011;47555;51.038;6.280;2023-04-24T07:20:51;3.25;;;2.00;;
25153;SDS011;47555;51.038;6.280;2023-04-24T07:23:17;3.45;;;1.90;;
25153;SDS011;47555;51.038;6.280;2023-04-24T07:25:43;3.47;;;2.35;;
25153;SDS011;47555;51.038;6.280;2023-04-24T07:28:09;6.32;;;4.18;;
25153;SDS011;47555;51.038;6.280;2023-04-24T07:30:34;8.77;;;4.20;;
25153;SDS011;47555;51.038;6.280;2023-04-24T07:33:00;9.40;;;4.47;;
25153;SDS011;47555;51.038;6.280;2023-04-24T07:35:26;9.73;;;4.95;;
25153;SDS011;47555;51.038;6.280;2023-04-24T07:37:52;8.15;;;4.35;;
25153;SDS011;47555;51.038;6.280;2023-04-24T07:40:18;9.55;;;4.60;;
25153;SDS011;47555;51.038;6.280;2023-04-24T07:42:44;9.18;;;4.10;;
25153;SDS011;47555;51.038;6.280;2023-04-24T07:45:10;6.90;;;3.88;;
25153;SDS011;47555;51.038;6.280;2023-04-24T07:47:35;5.57;;;3.45;;
25153;SDS011;47555;51.038;6.280;2023-04-24T07:50:03;6.50;;;3.80;;
25153;SDS011;47555;51.038;6.280;2023-04-24T07:52:29;7.57;;;3.65;;
25153;SDS011;47555;51.038;6.280;2023-04-24T07:54:55;7.00;;;3.20;;
25153;SDS011;47555;51.038;6.280;2023-04-24T07:57:23;5.07;;;3.50;;
25153;SDS011;47555;51.038;6.280;2023-04-24T07:59:50;6.25;;;2.83;;
25153;SDS011;47555;51.038;6.280;2023-04-24T08:02:15;6.32;;;3.00;;
25153;SDS011;47555;51.038;6.280;2023-04-24T08:04:41;6.78;;;3.30;;
25153;SDS011;47555;51.038;6.280;2023-04-24T08:07:06;5.82;;;3.50;;
25153;SDS011;47555;51.038;6.280;2023-04-24T08:09:36;4.72;;;3.40;;
25153;SDS011;47555;51.038;6.280;2023-04-24T08:12:01;7.18;;;3.40;;
25153;SDS011;47555;51.038;6.280;2023-04-24T08:14:27;6.03;;;3.72;;
25153;SDS011;47555;51.038;6.280;2023-04-24T08:16:56;5.80;;;3.42;;
25153;SDS011;47555;51.038;6.280;2023-04-24T08:19:21;5.65;;;3.50;;
25153;SDS011;47555;51.038;6.280;2023-04-24T08:21:47;7.40;;;4.07;;
25153;SDS011;47555;51.038;6.280;2023-04-24T08:24:12;8.52;;;4.90;;
25153;SDS011;47555;51.038;6.280;2023-04-24T08:26:38;6.30;;;4.22;;
25153;SDS011;47555;51.038;6.280;2023-04-24T08:29:04;8.98;;;4.85;;
25153;SDS011;47555;51.038;6.280;2023-04-24T08:31:31;8.90;;;5.30;;
25153;SDS011;47555;51.038;6.280;2023-04-24T08:33:57;11.77;;;5.10;;
25153;SDS011;47555;51.038;6.280;2023-04-24T08:36:22;9.82;;;5.20;;
25153;SDS011;47555;51.038;6.280;2023-04-24T08:38:48;11.20;;;5.35;;
25153;SDS011;47555;51.038;6.280;2023-04-24T08:41:14;12.23;;;5.95;;
25153;SDS011;47555;51.038;6.280;2023-04-24T08:43:40;9.70;;;5.75;;
25153;SDS011;47555;51.038;6.280;2023-04-24T08:46:07;10.35;;;5.95;;
25153;SDS011;47555;51.038;6.280;2023-04-24T08:48:33;12.20;;;6.32;;
25153;SDS011;47555;51.038;6.280;2023-04-24T08:50:59;13.70;;;6.45;;
25153;SDS011;47555;51.038;6.280;2023-04-24T08:53:26;12.75;;;6.72;;
25153;SDS011;47555;51.038;6.280;2023-04-24T08:55:52;10.02;;;6.38;;
25153;SDS011;47555;51.038;6.280;2023-04-24T08:58:20;14.00;;;6.30;;
25153;SDS011;47555;51.038;6.280;2023-04-24T09:00:47;13.30;;;6.43;;
25153;SDS011;47555;51.038;6.280;2023-04-24T09:03:13;15.32;;;6.70;;
25153;SDS011;47555;51.038;6.280;2023-04-24T09:05:41;16.17;;;6.50;;
25153;SDS011;47555;51.038;6.280;2023-04-24T09:08:11;11.57;;;6.57;;
25153;SDS011;47555;51.038;6.280;2023-04-24T09:10:38;13.30;;;6.28;;
25153;SDS011;47555;51.038;6.280;2023-04-24T09:13:05;12.20;;;6.80;;
25153;SDS011;47555;51.038;6.280;2023-04-24T09:15:31;13.10;;;7.13;;
25153;SDS011;47555;51.038;6.280;2023-04-24T09:17:57;15.05;;;6.88;;
25153;SDS011;47555;51.038;6.280;2023-04-24T09:20:23;12.13;;;6.03;;
25153;SDS011;47555;51.038;6.280;2023-04-24T09:22:48;10.90;;;5.82;;
25153;SDS011;47555;51.038;6.280;2023-04-24T09:25:19;13.50;;;6.85;;
25153;SDS011;47555;51.038;6.280;2023-04-24T09:27:45;12.60;;;6.07;;
25153;SDS011;47555;51.038;6.280;2023-04-24T09:30:11;8.57;;;5.30;;
25153;SDS011;47555;51.038;6.280;2023-04-24T09:32:37;11.05;;;6.28;;
25153;SDS011;47555;51.038;6.280;2023-04-24T09:35:10;8.18;;;4.57;;
25153;SDS011;47555;51.038;6.280;2023-04-24T09:37:40;8.88;;;4.82;;
25153;SDS011;47555;51.038;6.280;2023-04-24T09:40:17;9.45;;;4.95;;
25153;SDS011;47555;51.038;6.280;2023-04-24T09:42:44;9.75;;;4.80;;
25153;SDS011;47555;51.038;6.280;2023-04-24T09:45:11;11.65;;;5.03;;
25153;SDS011;47555;51.038;6.280;2023-04-24T09:47:37;8.93;;;4.20;;
25153;SDS011;47555;51.038;6.280;2023-04-24T09:50:13;7.88;;;4.53;;
25153;SDS011;47555;51.038;6.280;2023-04-24T09:52:45;7.60;;;4.07;;
25153;SDS011;47555;51.038;6.280;2023-04-24T09:55:13;6.40;;;4.30;;
25153;SDS011;47555;51.038;6.280;2023-04-24T10:00:30;10.77;;;5.30;;
25153;SDS011;47555;51.038;6.280;2023-04-24T10:05:27;8.75;;;4.82;;
25153;SDS011;47555;51.038;6.280;2023-04-24T10:08:01;10.48;;;4.70;;
25153;SDS011;47555;51.038;6.280;2023-04-24T10:10:28;9.48;;;4.93;;
25153;SDS011;47555;51.038;6.280;2023-04-24T10:12:55;11.50;;;5.38;;
25153;SDS011;47555;51.038;6.280;2023-04-24T10:15:21;11.27;;;5.38;;
25153;SDS011;47555;51.038;6.280;2023-04-24T10:17:48;12.18;;;5.15;;
25153;SDS011;47555;51.038;6.280;2023-04-24T10:20:19;6.15;;;4.10;;
25153;SDS011;47555;51.038;6.280;2023-04-24T10:22:47;9.82;;;4.10;;
25153;SDS011;47555;51.038;6.280;2023-04-24T10:25:16;11.02;;;3.45;;
25153;SDS011;47555;51.038;6.280;2023-04-24T10:27:46;8.65;;;4.00;;
25153;SDS011;47555;51.038;6.280;2023-04-24T10:30:12;9.85;;;3.75;;
25153;SDS011;47555;51.038;6.280;2023-04-24T10:32:39;6.95;;;3.10;;
25153;SDS011;47555;51.038;6.280;2023-04-24T10:35:09;6.68;;;2.90;;
25153;SDS011;47555;51.038;6.280;2023-04-24T10:37:37;6.07;;;3.63;;
25153;SDS011;47555;51.038;6.280;2023-04-24T10:40:06;6.30;;;2.80;;
25153;SDS011;47555;51.038;6.280;2023-04-24T10:42:33;4.70;;;2.53;;
25153;SDS011;47555;51.038;6.280;2023-04-24T10:44:59;5.88;;;2.90;;
25153;SDS011;47555;51.038;6.280;2023-04-24T10:47:29;7.28;;;2.80;;
25153;SDS011;47555;51.038;6.280;2023-04-24T10:50:07;7.18;;;3.08;;
25153;SDS011;47555;51.038;6.280;2023-04-24T10:52:44;7.07;;;2.90;;
25153;SDS011;47555;51.038;6.280;2023-04-24T10:55:12;8.77;;;3.70;;
25153;SDS011;47555;51.038;6.280;2023-04-24T10:57:39;5.03;;;3.38;;
25153;SDS011;47555;51.038;6.280;2023-04-24T11:00:25;8.98;;;3.55;;
25153;SDS011;47555;51.038;6.280;2023-04-24T11:02:52;8.57;;;3.88;;
25153;SDS011;47555;51.038;6.280;2023-04-24T11:05:18;8.43;;;3.63;;
25153;SDS011;47555;51.038;6.280;2023-04-24T11:10:46;6.97;;;3.70;;
25153;SDS011;47555;51.038;6.280;2023-04-24T11:13:16;9.05;;;4.15;;
25153;SDS011;47555;51.038;6.280;2023-04-24T11:15:42;8.65;;;3.97;;
25153;SDS011;47555;51.038;6.280;2023-04-24T11:18:14;8.48;;;3.92;;
25153;SDS011;47555;51.038;6.280;2023-04-24T11:20:44;10.27;;;4.85;;
25153;SDS011;47555;51.038;6.280;2023-04-24T11:23:11;9.20;;;3.90;;
25153;SDS011;47555;51.038;6.280;2023-04-24T11:25:37;9.27;;;5.20;;
25153;SDS011;47555;51.038;6.280;2023-04-24T11:28:03;15.00;;;5.25;;
25153;SDS011;47555;51.038;6.280;2023-04-24T11:30:30;11.63;;;4.88;;
25153;SDS011;47555;51.038;6.280;2023-04-24T11:33:01;10.95;;;5.05;;
25153;SDS011;47555;51.038;6.280;2023-04-24T11:35:28;15.07;;;5.28;;
25153;SDS011;47555;51.038;6.280;2023-04-24T11:37:55;10.95;;;4.95;;
25153;SDS011;47555;51.038;6.280;2023-04-24T11:40:22;11.07;;;5.35;;
25153;SDS011;47555;51.038;6.280;2023-04-24T11:42:48;6.03;;;4.13;;
25153;SDS011;47555;51.038;6.280;2023-04-24T11:45:16;7.53;;;5.38;;
25153;SDS011;47555;51.038;6.280;2023-04-24T11:47:43;9.90;;;4.80;;
25153;SDS011;47555;51.038;6.280;2023-04-24T11:50:19;9.65;;;5.03;;
25153;SDS011;47555;51.038;6.280;2023-04-24T11:52:48;13.23;;;4.93;;
25153;SDS011;47555;51.038;6.280;2023-04-24T11:57:42;12.07;;;4.82;;
25153;SDS011;47555;51.038;6.280;2023-04-24T12:02:45;11.38;;;4.32;;
25153;SDS011;47555;51.038;6.280;2023-04-24T12:05:24;9.45;;;4.63;;
25153;SDS011;47555;51.038;6.280;2023-04-24T12:07:51;6.97;;;4.05;;
25153;SDS011;47555;51.038;6.280;2023-04-24T12:10:21;10.90;;;3.60;;
25153;SDS011;47555;51.038;6.280;2023-04-24T12:12:47;9.32;;;3.78;;
25153;SDS011;47555;51.038;6.280;2023-04-24T12:15:15;6.53;;;3.35;;
25153;SDS011;47555;51.038;6.280;2023-04-24T12:17:42;7.25;;;3.28;;
25153;SDS011;47555;51.038;6.280;2023-04-24T12:20:08;5.82;;;3.50;;
25153;SDS011;47555;51.038;6.280;2023-04-24T12:22:47;9.55;;;3.90;;
25153;SDS011;47555;51.038;6.280;2023-04-24T12:25:14;7.07;;;3.20;;
25153;SDS011;47555;51.038;6.280;2023-04-24T12:27:41;8.45;;;3.25;;
25153;SDS011;47555;51.038;6.280;2023-04-24T12:30:14;8.25;;;3.65;;
25153;SDS011;47555;51.038;6.280;2023-04-24T12:32:41;7.60;;;3.40;;
25153;SDS011;47555;51.038;6.280;2023-04-24T12:35:21;6.93;;;2.85;;
25153;SDS011;47555;51.038;6.280;2023-04-24T12:37:47;8.13;;;3.10;;
25153;SDS011;47555;51.038;6.280;2023-04-24T12:40:14;7.68;;;2.88;;
25153;SDS011;47555;51.038;6.280;2023-04-24T12:45:10;5.32;;;3.35;;
25153;SDS011;47555;51.038;6.280;2023-04-24T12:47:37;6.57;;;3.10;;
25153;SDS011;47555;51.038;6.280;2023-04-24T12:50:03;6.50;;;3.25;;
25153;SDS011;47555;51.038;6.280;2023-04-24T12:52:29;6.38;;;3.03;;
25153;SDS011;47555;51.038;6.280;2023-04-24T12:54:56;7.05;;;3.03;;
25153;SDS011;47555;51.038;6.280;2023-04-24T12:57:23;3.90;;;2.85;;
25153;SDS011;47555;51.038;6.280;2023-04-24T12:59:49;5.00;;;3.38;;
25153;SDS011;47555;51.038;6.280;2023-04-24T13:02:15;7.45;;;2.90;;
25153;SDS011;47555;51.038;6.280;2023-04-24T13:04:44;4.95;;;2.72;;
25153;SDS011;47555;51.038;6.280;2023-04-24T13:07:12;7.15;;;3.25;;
25153;SDS011;47555;51.038;6.280;2023-04-24T13:09:41;8.98;;;3.00;;
25153;SDS011;47555;51.038;6.280;2023-04-24T13:12:08;5.68;;;3.28;;
25153;SDS011;47555;51.038;6.280;2023-04-24T13:14:34;6.90;;;3.42;;
25153;SDS011;47555;51.038;6.280;2023-04-24T13:17:00;5.22;;;3.67;;
25153;SDS011;47555;51.038;6.280;2023-04-24T13:19:26;5.03;;;3.30;;
25153;SDS011;47555;51.038;6.280;2023-04-24T13:21:52;4.18;;;3.42;;
25153;SDS011;47555;51.038;6.280;2023-04-24T13:24:22;7.72;;;3.40;;
25153;SDS011;47555;51.038;6.280;2023-04-24T13:26:52;7.05;;;3.58;;
25153;SDS011;47555;51.038;6.280;2023-04-24T13:29:18;7.45;;;3.75;;
25153;SDS011;47555;51.038;6.280;2023-04-24T13:31:44;6.85;;;3.10;;
25153;SDS011;47555;51.038;6.280;2023-04-24T13:34:11;7.57;;;3.72;;
25153;SDS011;47555;51.038;6.280;2023-04-24T13:36:37;8.15;;;3.70;;
25153;SDS011;47555;51.038;6.280;2023-04-24T13:39:03;5.63;;;3.38;;
25153;SDS011;47555;51.038;6.280;2023-04-24T13:41:33;6.47;;;2.80;;
25153;SDS011;47555;51.038;6.280;2023-04-24T13:44:00;7.55;;;3.13;;
25153;SDS011;47555;51.038;6.280;2023-04-24T13:46:26;6.00;;;3.63;;
25153;SDS011;47555;51.038;6.280;2023-04-24T13:48:51;7.30;;;3.33;;
25153;SDS011;47555;51.038;6.280;2023-04-24T13:51:17;7.63;;;4.00;;
25153;SDS011;47555;51.038;6.280;2023-04-24T13:53:43;7.47;;;3.47;;
25153;SDS011;47555;51.038;6.280;2023-04-24T13:56:08;8.88;;;3.30;;
25153;SDS011;47555;51.038;6.280;2023-04-24T13:58:34;5.35;;;3.08;;
25153;SDS011;47555;51.038;6.280;2023-04-24T14:01:03;4.05;;;3.00;;
25153;SDS011;47555;51.038;6.280;2023-04-24T14:03:29;4.13;;;2.90;;
25153;SDS011;47555;51.038;6.280;2023-04-24T14:05:54;5.50;;;2.67;;
25153;SDS011;47555;51.038;6.280;2023-04-24T14:08:20;7.32;;;2.85;;
25153;SDS011;47555;51.038;6.280;2023-04-24T14:10:46;8.18;;;3.10;;
25153;SDS011;47555;51.038;6.280;2023-04-24T14:13:15;7.85;;;3.47;;
25153;SDS011;47555;51.038;6.280;2023-04-24T14:15:41;6.47;;;3.08;;
25153;SDS011;47555;51.038;6.280;2023-04-24T14:18:06;7.43;;;3.67;;
25153;SDS011;47555;51.038;6.280;2023-04-24T14:20:32;7.05;;;3.22;;
25153;SDS011;47555;51.038;6.280;2023-04-24T14:22:58;4.97;;;3.13;;
25153;SDS011;47555;51.038;6.280;2023-04-24T14:25:24;6.18;;;3.55;;
25153;SDS011;47555;51.038;6.280;2023-04-24T14:27:50;6.10;;;3.50;;
25153;SDS011;47555;51.038;6.280;2023-04-24T14:30:16;7.35;;;3.50;;
25153;SDS011;47555;51.038;6.280;2023-04-24T14:32:41;7.20;;;4.10;;
25153;SDS011;47555;51.038;6.280;2023-04-24T14:35:07;5.10;;;3.40;;
25153;SDS011;47555;51.038;6.280;2023-04-24T14:37:33;3.95;;;2.88;;
25153;SDS011;47555;51.038;6.280;2023-04-24T14:39:59;6.22;;;3.03;;
25153;SDS011;47555;51.038;6.280;2023-04-24T14:42:25;4.95;;;3.40;;
25153;SDS011;47555;51.038;6.280;2023-04-24T14:44:50;6.32;;;3.42;;
25153;SDS011;47555;51.038;6.280;2023-04-24T14:47:16;3.97;;;3.00;;
25153;SDS011;47555;51.038;6.280;2023-04-24T14:49:46;4.18;;;3.00;;
25153;SDS011;47555;51.038;6.280;2023-04-24T14:52:15;4.80;;;3.42;;
25153;SDS011;47555;51.038;6.280;2023-04-24T14:54:41;5.38;;;3.00;;
25153;SDS011;47555;51.038;6.280;2023-04-24T14:57:07;4.65;;;3.10;;
25153;SDS011;47555;51.038;6.280;2023-04-24T14:59:33;3.22;;;2.58;;
25153;SDS011;47555;51.038;6.280;2023-04-24T15:01:59;4.03;;;3.03;;
25153;SDS011;47555;51.038;6.280;2023-04-24T15:04:24;4.82;;;3.30;;
25153;SDS011;47555;51.038;6.280;2023-04-24T15:06:50;5.10;;;2.88;;
25153;SDS011;47555;51.038;6.280;2023-04-24T15:09:16;4.38;;;3.17;;